Time;durP1;ratioP1;P1;durP2;ratioP2;P2;SDS_P1;SDS_P2;PMS_P1;PMS_P2;Temp;Humidity;BMP_temperature;BMP_pressure;BME280_temperature;BME280_humidity;BME280_pressure;Samples;Min_cycle;Max_cycle;Signal;HPM_P1;HPM_P2
2022/01/03 00:01:44;;;;;;;8.10;2.10;;;;;;;;;;5014320;28;20038;-65
2022/01/03 00:04:11;;;;;;;8.65;2.00;;;12.20;99.90;;;;;;5014690;28;20546;-67
2022/01/03 00:06:38;;;;;;;2.70;1.55;;;10.00;99.90;;;;;;5014125;28;20148;-68
2022/01/03 00:09:05;;;;;;;5.85;1.80;;;;;;;;;;5013370;28;20038;-67
2022/01/03 00:11:31;;;;;;;5.65;1.92;;;;;;;;;;5013874;28;20036;-66
2022/01/03 00:13:57;;;;;;;4.07;1.77;;;;;;;;;;5013988;28;20038;-66
2022/01/03 00:16:24;;;;;;;4.13;1.80;;;;;;;;;;5013930;28;20571;-67
2022/01/03 00:18:51;;;;;;;7.05;1.95;;;;;;;;;;5014058;28;20034;-67
2022/01/03 00:21:18;;;;;;;5.55;1.38;;;;;;;;;;5013269;28;20022;-66
2022/01/03 00:23:51;;;;;;;8.13;2.03;;;;;;;;;;5013810;28;20072;-67
2022/01/03 00:26:27;;;;;;;6.05;1.77;;;;;;;;;;5013871;28;20086;-67
2022/01/03 00:29:01;;;;;;;3.42;1.35;;;;;;;;;;5014089;28;20446;-66
2022/01/03 00:31:33;;;;;;;3.88;1.67;;;;;;;;;;5012879;28;20121;-66
2022/01/03 00:33:59;;;;;;;7.03;1.80;;;;;;;;;;5013795;28;20057;-67
2022/01/03 00:36:28;;;;;;;4.53;1.88;;;;;;;;;;5013581;28;20026;-65
2022/01/03 00:38:54;;;;;;;6.53;2.08;;;;;;;;;;5013349;28;20030;-66
2022/01/03 00:41:21;;;;;;;5.68;1.67;;;;;;;;;;5012887;28;20026;-64
2022/01/03 00:43:48;;;;;;;5.60;1.60;;;;;;;;;;5014081;28;20365;-68
2022/01/03 00:46:16;;;;;;;6.00;2.30;;;11.90;99.90;;;;;;5013611;28;20132;-65
2022/01/03 00:48:43;;;;;;;6.55;2.03;;;;;;;;;;5014000;28;20120;-66
2022/01/03 00:51:10;;;;;;;6.75;2.25;;;;;;;;;;5012586;28;20030;-65
2022/01/03 00:53:36;;;;;;;5.60;2.03;;;;;;;;;;5013354;28;20041;-66
2022/01/03 00:56:15;;;;;;;4.63;1.75;;;9.90;99.90;;;;;;5013599;28;20107;-66
2022/01/03 00:58:51;;;;;;;6.47;1.73;;;;;;;;;;5013759;28;20032;-67
2022/01/03 01:01:18;;;;;;;5.82;1.35;;;;;;;;;;5012888;28;20018;-67
2022/01/03 01:03:48;;;;;;;2.83;1.42;;;;;;;;;;5013188;28;20030;-66
2022/01/03 01:06:14;;;;;;;5.78;1.60;;;;;;;;;;5013433;28;20419;-66
2022/01/03 01:08:40;;;;;;;2.30;1.35;;;;;;;;;;5013077;28;20571;-66
2022/01/03 01:11:08;;;;;;;6.88;1.52;;;;;;;;;;5012657;28;20095;-67
2022/01/03 01:13:35;;;;;;;6.78;1.95;;;;;;;;;;5013022;28;20061;-65
2022/01/03 01:16:06;;;;;;;7.28;1.90;;;;;;;;;;5012855;28;20105;-66
2022/01/03 01:18:36;;;;;;;7.93;2.05;;;;;;;;;;5013328;28;20124;-65
2022/01/03 01:21:02;;;;;;;4.28;1.42;;;;;;;;;;5012617;28;20018;-66
2022/01/03 01:23:28;;;;;;;6.10;1.65;;;;;;;;;;5012646;28;20404;-65
2022/01/03 01:28:20;;;;;;;4.70;1.70;;;;;;;;;;5012920;28;20038;-65
2022/01/03 01:30:46;;;;;;;4.75;1.75;;;;;;;;;;5011326;28;20547;-64
2022/01/03 01:33:14;;;;;;;1.77;1.40;;;;;;;;;;5012899;28;20030;-65
2022/01/03 01:35:50;;;;;;;3.72;1.40;;;;;;;;;;5012557;28;20034;-65
2022/01/03 01:38:22;;;;;;;3.72;1.63;;;;;;;;;;5012761;28;20037;-64
2022/01/03 01:40:49;;;;;;;4.13;1.83;;;;;;;;;;5014541;28;20109;-65
2022/01/03 01:43:18;;;;;;;4.55;2.03;;;;;;;;;;5026301;28;20065;-66
2022/01/03 01:45:47;;;;;;;4.03;1.58;;;;;;;;;;5020844;28;20555;-65
2022/01/03 01:48:13;;;;;;;5.47;1.45;;;;;;;;;;5012657;28;20031;-66
2022/01/03 01:50:41;;;;;;;4.38;1.40;;;;;;;;;;5011962;28;20061;-66
2022/01/03 01:53:08;;;;;;;8.10;1.90;;;;;;;;;;5012350;28;20120;-65
2022/01/03 01:55:34;;;;;;;6.20;1.60;;;;;;;;;;5011988;28;20403;-66
2022/01/03 01:58:11;;;;;;;3.85;1.40;;;;;;;;;;5012250;28;20030;-66
2022/01/03 02:00:38;;;;;;;3.58;1.42;;;;;;;;;;5011712;28;20053;-66
2022/01/03 02:03:04;;;;;;;7.03;1.80;;;;;;;;;;5012308;28;20038;-66
2022/01/03 02:05:42;;;;;;;5.00;1.88;;;;;;;;;;5011939;28;20025;-66
2022/01/03 02:08:12;;;;;;;5.95;1.77;;;;;;;;;;5012034;28;20041;-65
2022/01/03 02:10:42;;;;;;;4.40;1.70;;;;;;;;;;5011272;28;20021;-66
2022/01/03 02:13:09;;;;;;;10.65;2.10;;;;;;;;;;5012055;28;20395;-66
2022/01/03 02:15:37;;;;;;;7.50;1.70;;;;;;;;;;5012197;28;20022;-66
2022/01/03 02:18:03;;;;;;;5.88;1.70;;;;;;;;;;5012198;28;20064;-66
2022/01/03 02:20:31;;;;;;;5.28;1.60;;;;;;;;;;5011377;28;20100;-67
2022/01/03 02:22:58;;;;;;;6.82;1.88;;;;;;;;;;5011807;28;20030;-66
2022/01/03 02:25:24;;;;;;;4.25;1.80;;;;;;;;;;5011673;28;20032;-65
2022/01/03 02:27:51;;;;;;;4.70;2.10;;;;;;;;;;5011964;28;20104;-66
2022/01/03 02:30:19;;;;;;;5.30;1.50;;;;;;;;;;5011043;28;20025;-66
2022/01/03 02:32:45;;;;;;;5.13;1.80;;;;;;;;;;5011713;28;20026;-66
2022/01/03 02:35:11;;;;;;;7.30;1.92;;;;;;;;;;5011402;28;20049;-66
2022/01/03 02:37:38;;;;;;;4.38;1.63;;;;;;;;;;5011525;28;20049;-65
2022/01/03 02:40:05;;;;;;;2.67;1.30;;;;;;;;;;5010764;28;20033;-66
2022/01/03 02:42:31;;;;;;;8.25;1.80;;;;;;;;;;5011435;28;20488;-65
2022/01/03 02:45:00;;;;;;;4.65;1.58;;;;;;;;;;5011454;28;20041;-66
2022/01/03 02:47:26;;;;;;;5.55;1.67;;;;;;;;;;5011622;28;20643;-65
2022/01/03 02:49:52;;;;;;;6.63;1.88;;;;;;;;;;5010441;28;20033;-66
2022/01/03 02:52:19;;;;;;;4.88;1.38;;;;;;;;;;5011242;28;20656;-66
2022/01/03 02:54:45;;;;;;;3.00;1.60;;;;;;;;;;5010388;28;20029;-63
2022/01/03 02:57:11;;;;;;;4.00;1.60;;;;;;;;;;5011030;28;20543;-65
2022/01/03 02:59:37;;;;;;;7.60;2.45;;;;;;;;;;5007207;28;20099;-65
2022/01/03 03:02:05;;;;;;;6.20;1.60;;;;;;;;;;5011219;28;20026;-66
2022/01/03 03:04:31;;;;;;;7.93;2.08;;;12.80;99.90;;;;;;5010890;28;20665;-65
2022/01/03 03:06:56;;;;;;;7.70;1.70;;;;;;;;;;5010714;28;20116;-66
2022/01/03 03:09:24;;;;;;;6.82;1.80;;;;;;;;;;5009021;28;20038;-66
2022/01/03 03:11:50;;;;;;;5.55;1.40;;;11.40;99.90;;;;;;5011060;28;20113;-67
2022/01/03 03:14:16;;;;;;;10.32;2.65;;;;;;;;;;5011003;28;20109;-66
2022/01/03 03:16:42;;;;;;;5.30;1.98;;;;;;;;;;5010999;28;20060;-66
2022/01/03 03:19:09;;;;;;;7.20;2.22;;;;;;;;;;5010370;28;20480;-66
2022/01/03 03:21:35;;;;;;;6.57;1.88;;;;;;;;;;5019201;22;20043;-65
2022/01/03 03:24:01;;;;;;;8.27;2.50;;;;;;;;;;4991341;28;20026;-65
2022/01/03 03:26:27;;;;;;;8.07;2.03;;;;;;;;;;4992065;28;20039;-64
2022/01/03 03:28:54;;;;;;;6.43;2.10;;;;;;;;;;4992776;28;20037;-64
2022/01/03 03:31:20;;;;;;;7.65;1.80;;;;;;;;;;4991844;28;20031;-64
2022/01/03 03:33:46;;;;;;;7.90;1.90;;;;;;;;;;4991607;28;20046;-64
2022/01/03 03:36:12;;;;;;;4.00;1.65;;;;;;;;;;4991320;28;20031;-66
2022/01/03 03:38:38;;;;;;;4.32;1.63;;;;;;;;;;4991490;28;20026;-65
2022/01/03 03:41:04;;;;;;;5.43;1.65;;;;;;;;;;4990623;28;20054;-65
2022/01/03 03:43:30;;;;;;;5.88;1.90;;;;;;;;;;4990796;28;20034;-66
2022/01/03 03:45:56;;;;;;;4.80;1.90;;;;;;;;;;4990311;28;20539;-66
2022/01/03 03:48:23;;;;;;;8.23;2.17;;;;;;;;;;4991202;28;20098;-66
2022/01/03 03:50:49;;;;;;;7.47;2.10;;;;;;;;;;4990510;28;20030;-65
2022/01/03 03:53:16;;;;;;;10.82;2.15;;;;;;;;;;4990822;28;20062;-66
2022/01/03 03:55:43;;;;;;;9.57;1.92;;;;;;;;;;4991169;28;20033;-66
2022/01/03 03:58:09;;;;;;;9.52;2.35;;;;;;;;;;4991191;28;20050;-66
2022/01/03 04:00:35;;;;;;;4.22;1.73;;;;;;;;;;4990428;28;20034;-65
2022/01/03 04:03:01;;;;;;;5.75;1.83;;;;;;;;;;4991074;28;20077;-66
2022/01/03 04:05:27;;;;;;;7.28;1.52;;;;;;;;;;4991185;28;20038;-65
2022/01/03 04:07:53;;;;;;;7.72;1.67;;;;;;;;;;4994471;28;20531;-66
2022/01/03 04:10:21;;;;;;;12.63;2.00;;;;;;;;;;4994469;28;20030;-65
2022/01/03 04:12:47;;;;;;;9.82;2.13;;;;;;;;;;4994359;28;20062;-66
2022/01/03 04:15:14;;;;;;;5.10;1.98;;;;;;;;;;4994511;28;20027;-65
2022/01/03 04:17:40;;;;;;;9.43;1.67;;;;;;;;;;4994612;28;20493;-66
2022/01/03 04:20:06;;;;;;;11.18;1.95;;;;;;;;;;4993928;28;20045;-66
2022/01/03 04:22:33;;;;;;;6.78;1.83;;;;;;;;;;4994075;28;20031;-65
2022/01/03 04:24:59;;;;;;;5.78;1.75;;;;;;;;;;4994343;28;20034;-66
2022/01/03 04:27:25;;;;;;;6.13;1.65;;;;;;;;;;4993509;28;20038;-65
2022/01/03 04:29:51;;;;;;;5.15;1.40;;;;;;;;;;4993826;28;20034;-66
2022/01/03 04:32:17;;;;;;;7.18;2.10;;;;;;;;;;4994313;28;20038;-66
2022/01/03 04:34:43;;;;;;;7.28;1.70;;;;;;;;;;4994212;28;20034;-66
2022/01/03 04:37:09;;;;;;;10.35;1.90;;;;;;;;;;4993922;28;20030;-66
2022/01/03 04:39:35;;;;;;;6.43;1.67;;;;;;;;;;4993437;28;20026;-65
2022/01/03 04:42:01;;;;;;;7.38;2.08;;;;;;;;;;4994038;28;20037;-66
2022/01/03 04:44:27;;;;;;;10.45;2.03;;;;;;;;;;4993710;28;20519;-64
2022/01/03 04:46:55;;;;;;;4.88;1.40;;;;;;;;;;4993156;28;20034;-66
2022/01/03 04:49:21;;;;;;;5.10;1.83;;;;;;;;;;4993697;28;20385;-63
2022/01/03 04:51:47;;;;;;;7.05;2.00;;;;;;;;;;4994593;28;20080;-63
2022/01/03 04:54:13;;;;;;;4.65;1.70;;;;;;;;;;4994636;28;20432;-66
2022/01/03 04:56:39;;;;;;;4.75;1.42;;;;;;;;;;4992416;28;20023;-64
2022/01/03 04:59:05;;;;;;;5.13;1.60;;;;;;;;;;4992881;28;20034;-64
2022/01/03 05:01:31;;;;;;;5.82;1.50;;;;;;;;;;4993429;28;20057;-66
2022/01/03 05:03:58;;;;;;;5.43;1.58;;;;;;;;;;4993749;28;20039;-65
2022/01/03 05:06:24;;;;;;;5.47;1.70;;;;;;;;;;4992972;28;20018;-66
2022/01/03 05:08:50;;;;;;;4.93;1.90;;;;;;;;;;4993802;28;20032;-64
2022/01/03 05:11:16;;;;;;;6.93;1.70;;;;;;;;;;4992725;28;20041;-66
2022/01/03 05:13:42;;;;;;;5.82;1.70;;;;;;;;;;4993372;28;20122;-65
2022/01/03 05:16:09;;;;;;;3.22;1.60;;;;;;;;;;4993198;28;20527;-66
2022/01/03 05:18:35;;;;;;;7.88;1.90;;;;;;;;;;4993072;28;20039;-66
2022/01/03 05:21:01;;;;;;;6.60;2.10;;;;;;;;;;4992459;28;20473;-65
2022/01/03 05:23:27;;;;;;;5.32;1.50;;;;;;;;;;4993606;28;20034;-65
2022/01/03 05:25:53;;;;;;;5.93;1.73;;;;;;;;;;4993268;28;20070;-66
2022/01/03 05:28:19;;;;;;;9.38;2.00;;;;;;;;;;4992102;28;20026;-66
2022/01/03 05:30:45;;;;;;;6.90;1.88;;;;;;;;;;4990980;28;20050;-66
2022/01/03 05:33:11;;;;;;;7.40;1.70;;;;;;;;;;4993864;28;20031;-66
2022/01/03 05:35:37;;;;;;;5.32;1.63;;;;;;;;;;4994721;28;20032;-65
2022/01/03 05:38:03;;;;;;;4.82;1.60;;;;;;;;;;4996353;28;20037;-66
2022/01/03 05:40:30;;;;;;;7.25;1.90;;;;;;;;;;4995623;28;20029;-65
2022/01/03 05:42:56;;;;;;;3.83;1.38;;;;;;;;;;4996630;28;20030;-66
2022/01/03 05:45:22;;;;;;;5.95;1.52;;;;;;;;;;4995989;28;20081;-65
2022/01/03 05:47:48;;;;;;;8.13;2.03;;;;;;;;;;4995469;28;20030;-66
2022/01/03 05:50:15;;;;;;;8.55;1.52;;;;;;;;;;4985324;28;20104;-70
2022/01/03 05:52:41;;;;;;;7.45;1.77;;;;;;;;;;4999156;28;20488;-77
2022/01/03 05:55:07;;;;;;;4.35;1.92;;;;;;;;;;5001844;28;20042;-77
2022/01/03 05:57:33;;;;;;;6.28;1.70;;;;;;;;;;5003403;28;20041;-74
2022/01/03 06:00:01;;;;;;;7.20;1.50;;;;;;;;;;4999248;28;20050;-74
2022/01/03 06:02:31;;;;;;;9.20;2.00;;;;;;;;;;5000597;28;20022;-76
2022/01/03 06:04:58;;;;;;;6.47;1.60;;;10.40;99.90;;;;;;5001238;28;20026;-76
2022/01/03 06:07:23;;;;;;;9.80;1.80;;;10.10;99.90;;;;;;4996379;28;20084;-77
2022/01/03 06:09:50;;;;;;;13.60;2.13;;;;;;;;;;4992380;28;20022;-76
2022/01/03 06:12:17;;;;;;;8.73;1.60;;;11.10;99.90;;;;;;4994812;28;20026;-76
2022/01/03 06:14:43;;;;;;;4.70;1.35;;;;;;;;;;4995198;28;20027;-75
2022/01/03 06:17:09;;;;;;;8.00;1.90;;;;;;;;;;4994391;28;20053;-76
2022/01/03 06:19:36;;;;;;;10.55;1.80;;;10.00;99.90;;;;;;4998415;28;20038;-75
2022/01/03 06:22:03;;;;;;;7.10;1.70;;;10.70;99.90;;;;;;4992610;28;20113;-77
2022/01/03 06:24:29;;;;;;;9.43;1.90;;;10.30;99.90;;;;;;4992921;28;20134;-76
2022/01/03 06:26:55;;;;;;;7.13;1.63;;;11.80;99.90;;;;;;4992791;28;20579;-76
2022/01/03 06:29:21;;;;;;;5.45;1.60;;;10.30;99.90;;;;;;4991308;28;20058;-76
2022/01/03 06:31:47;;;;;;;10.05;1.67;;;10.80;99.90;;;;;;4991386;28;20033;-76
2022/01/03 06:34:14;;;;;;;7.47;1.73;;;10.30;99.90;;;;;;4992297;28;20444;-75
2022/01/03 06:36:39;;;;;;;10.95;1.75;;;10.50;99.90;;;;;;4992028;28;20065;-74
2022/01/03 06:39:07;;;;;;;5.88;1.90;;;10.40;99.90;;;;;;4991423;28;20058;-76
2022/01/03 06:41:33;;;;;;;7.68;1.60;;;;;;;;;;4995693;28;20029;-76
2022/01/03 06:43:59;;;;;;;6.82;2.25;;;11.20;99.90;;;;;;5002535;28;20312;-76
2022/01/03 06:46:25;;;;;;;7.88;1.52;;;9.60;99.90;;;;;;4993574;28;20035;-77
2022/01/03 06:48:51;;;;;;;3.88;1.52;;;;;;;;;;4988546;28;20019;-77
2022/01/03 06:51:16;;;;;;;8.15;2.30;;;9.90;99.90;;;;;;4988820;28;20031;-77
2022/01/03 06:53:43;;;;;;;8.57;1.70;;;10.60;99.90;;;;;;4989432;28;20035;-77
2022/01/03 06:56:09;;;;;;;7.68;1.90;;;10.60;99.90;;;;;;4994715;28;20018;-75
2022/01/03 06:58:35;;;;;;;5.38;1.65;;;8.30;99.90;;;;;;4994771;28;20058;-76
2022/01/03 07:01:02;;;;;;;8.27;1.83;;;;;;;;;;4991394;28;20035;-77
2022/01/03 07:03:28;;;;;;;8.43;1.70;;;;;;;;;;4993770;28;20034;-76
2022/01/03 07:05:54;;;;;;;5.13;1.85;;;9.80;99.90;;;;;;4991276;28;20074;-75
2022/01/03 07:08:21;;;;;;;9.18;2.47;;;9.30;99.90;;;;;;4975241;28;20721;-76
2022/01/03 07:10:47;;;;;;;11.63;2.40;;;;;;;;;;4972870;28;20109;-74
2022/01/03 07:13:13;;;;;;;7.43;1.33;;;11.60;99.90;;;;;;4971915;28;20497;-75
2022/01/03 07:21:07;;;;;;;7.50;2.28;;;10.10;99.90;;;;;;4973473;28;20101;-75
2022/01/03 07:23:34;;;;;;;8.73;2.00;;;10.40;99.90;;;;;;4974953;28;20034;-75
2022/01/03 07:26:00;;;;;;;10.30;1.80;;;11.00;99.90;;;;;;4973934;28;20038;-75
2022/01/03 07:28:26;;;;;;;7.38;1.58;;;10.10;99.90;;;;;;4974725;28;20058;-74
2022/01/03 07:30:52;;;;;;;6.80;1.60;;;11.30;99.90;;;;;;4973938;28;20031;-71
2022/01/03 07:33:17;;;;;;;6.28;1.88;;;11.80;99.90;;;;;;4974017;28;20396;-70
2022/01/03 07:35:43;;;;;;;7.50;1.30;;;11.00;99.90;;;;;;4973848;28;20027;-68
2022/01/03 07:38:09;;;;;;;6.32;1.90;;;;;;;;;;4973172;28;20078;-68
2022/01/03 07:40:36;;;;;;;10.25;1.92;;;;;;;;;;4971653;28;20449;-69
2022/01/03 07:43:02;;;;;;;7.43;2.03;;;;;;;;;;4977414;28;20050;-68
2022/01/03 07:45:28;;;;;;;8.20;2.00;;;10.00;99.90;;;;;;4994501;28;20037;-70
2022/01/03 07:47:53;;;;;;;12.48;2.17;;;10.20;99.90;;;;;;4997151;28;20117;-69
2022/01/03 07:50:20;;;;;;;10.00;1.90;;;;;;;;;;4995741;28;20476;-69
2022/01/03 07:52:45;;;;;;;6.70;1.60;;;10.30;99.90;;;;;;5003065;28;20087;-69
2022/01/03 07:55:13;;;;;;;8.05;2.20;;;11.50;99.90;;;;;;5011825;28;20521;-71
2022/01/03 07:57:39;;;;;;;6.18;1.42;;;10.00;99.90;;;;;;5010932;28;20027;-71
2022/01/03 08:00:07;;;;;;;5.50;1.95;;;11.40;99.90;;;;;;5009171;28;20030;-70
2022/01/03 08:02:33;;;;;;;10.65;2.08;;;11.40;99.90;;;;;;5000449;28;20033;-71
2022/01/03 08:04:59;;;;;;;6.35;1.98;;;;;;;;;;5000610;28;20109;-70
2022/01/03 08:07:25;;;;;;;4.97;1.98;;;10.30;99.90;;;;;;5008915;28;20650;-70
2022/01/03 08:09:51;;;;;;;7.20;1.67;;;10.30;99.90;;;;;;5011047;28;20038;-70
2022/01/03 08:12:17;;;;;;;3.20;1.30;;;13.70;99.90;;;;;;5011114;28;20061;-71
2022/01/03 08:14:43;;;;;;;7.65;1.63;;;;;;;;;;5002397;28;20038;-70
2022/01/03 08:17:09;;;;;;;7.18;1.60;;;10.20;99.90;;;;;;4997730;28;20041;-69
2022/01/03 08:19:35;;;;;;;7.80;1.88;;;;;;;;;;4996379;28;20400;-69
2022/01/03 08:22:01;;;;;;;7.15;1.50;;;11.00;99.90;;;;;;4996307;28;20035;-69
2022/01/03 08:24:27;;;;;;;10.73;1.90;;;10.70;99.90;;;;;;4996270;28;20054;-70
2022/01/03 08:26:54;;;;;;;10.30;1.67;;;;;;;;;;4994995;28;20033;-70
2022/01/03 08:29:20;;;;;;;7.97;1.80;;;;;;;;;;4992202;28;20034;-70
2022/01/03 08:31:46;;;;;;;6.75;1.95;;;;;;;;;;4994092;28;20117;-69
2022/01/03 08:34:12;;;;;;;6.88;1.70;;;10.30;99.90;;;;;;4994385;28;20065;-70
2022/01/03 08:36:38;;;;;;;12.63;2.30;;;10.30;99.90;;;;;;4982693;28;20038;-71
2022/01/03 08:39:04;;;;;;;10.75;1.85;;;10.70;99.90;;;;;;4988163;28;20033;-73
2022/01/03 08:41:30;;;;;;;7.60;1.85;;;10.90;99.90;;;;;;4986596;28;20022;-69
2022/01/03 08:43:56;;;;;;;10.18;2.00;;;;;;;;;;4993570;28;20023;-70
2022/01/03 08:46:23;;;;;;;6.82;1.38;;;10.80;99.90;;;;;;4987228;28;20030;-70
2022/01/03 08:48:50;;;;;;;9.13;1.73;;;;;;;;;;4994132;28;20051;-70
2022/01/03 08:51:16;;;;;;;7.03;1.67;;;;;;;;;;4993382;28;20030;-70
2022/01/03 08:53:41;;;;;;;8.13;2.35;;;9.90;99.90;;;;;;4993268;28;20516;-71
2022/01/03 08:56:07;;;;;;;8.70;3.25;;;;;;;;;;4993478;28;20034;-70
2022/01/03 08:58:33;;;;;;;9.93;2.85;;;12.00;99.90;;;;;;4994001;28;20034;-70
2022/01/03 09:00:59;;;;;;;10.23;2.50;;;11.10;99.90;;;;;;4991793;28;20026;-70
2022/01/03 09:03:25;;;;;;;7.82;1.70;;;9.00;99.90;;;;;;4973743;28;20038;-69
2022/01/03 09:05:54;;;;;;;7.07;1.38;;;;;;;;;;4973295;28;20043;-69
2022/01/03 09:08:22;;;;;;;6.18;1.52;;;;;;;;;;4973520;28;20077;-70
2022/01/03 09:10:48;;;;;;;11.75;2.13;;;;;;;;;;4974190;28;20046;-71
2022/01/03 09:13:14;;;;;;;10.30;1.85;;;12.20;99.90;;;;;;4972885;28;20565;-71
2022/01/03 09:15:44;;;;;;;5.05;1.35;;;;;;;;;;4979514;28;20033;-71
2022/01/03 09:18:14;;;;;;;6.28;1.55;;;;;;;;;;4992316;28;20022;-70
2022/01/03 09:20:40;;;;;;;7.50;2.28;;;11.60;99.90;;;;;;4993291;28;20027;-71
2022/01/03 09:23:12;;;;;;;5.15;1.40;;;;;;;;;;4994260;28;20735;-71
2022/01/03 09:30:50;;;;;;;6.25;1.73;;;11.50;99.90;;;;;;4993014;28;20040;-70
2022/01/03 09:33:16;;;;;;;7.05;1.60;;;;;;;;;;4993137;28;20473;-70
2022/01/03 09:35:43;;;;;;;9.23;1.63;;;11.80;99.90;;;;;;4993369;28;20031;-70
2022/01/03 09:38:10;;;;;;;7.25;1.70;;;;;;;;;;4993445;28;20042;-70
2022/01/03 09:40:38;;;;;;;5.03;1.30;;;9.30;99.90;;;;;;4991409;28;20451;-70
2022/01/03 09:43:04;;;;;;;7.50;1.70;;;12.10;99.90;;;;;;4993168;28;20507;-70
2022/01/03 09:45:35;;;;;;;4.28;1.15;;;;;;;;;;4993151;28;20030;-70
2022/01/03 09:48:03;;;;;;;7.53;1.70;;;13.00;99.90;;;;;;4992955;28;20119;-70
2022/01/03 09:50:32;;;;;;;7.13;1.73;;;12.00;99.90;;;;;;4992051;28;20040;-70
2022/01/03 09:52:58;;;;;;;5.68;1.60;;;12.40;99.90;;;;;;4992390;28;20034;-70
2022/01/03 09:55:24;;;;;;;8.25;1.83;;;;;;;;;;4992525;28;20030;-70
2022/01/03 09:57:50;;;;;;;6.20;1.55;;;12.20;99.90;;;;;;4992681;28;20023;-70
2022/01/03 10:00:22;;;;;;;11.05;1.65;;;11.70;99.90;;;;;;4990917;28;20445;-70
2022/01/03 10:02:52;;;;;;;7.45;1.60;;;13.30;99.90;;;;;;4992307;28;20081;-69
2022/01/03 10:05:18;;;;;;;4.75;1.55;;;;;;;;;;4991909;28;20031;-71
2022/01/03 10:07:44;;;;;;;7.43;1.50;;;;;;;;;;4992569;28;20034;-70
2022/01/03 10:10:10;;;;;;;7.90;2.53;;;;;;;;;;4991503;28;20354;-70
2022/01/03 10:12:37;;;;;;;7.75;1.70;;;;;;;;;;4992330;28;20050;-70
2022/01/03 10:15:07;;;;;;;3.47;1.27;;;;;;;;;;4992337;28;20027;-71
2022/01/03 10:17:43;;;;;;;4.03;1.70;;;;;;;;;;4992264;28;20097;-69
2022/01/03 10:20:12;;;;;;;10.18;1.90;;;11.90;99.90;;;;;;4991415;28;20030;-69
2022/01/03 10:22:39;;;;;;;4.05;1.50;;;11.90;99.90;;;;;;4992002;28;20035;-69
2022/01/03 10:25:14;;;;;;;7.40;2.13;;;;;;;;;;4992200;28;20061;-69
2022/01/03 10:27:51;;;;;;;4.82;1.30;;;;;;;;;;4992260;28;20376;-69
2022/01/03 10:30:29;;;;;;;6.45;1.70;;;;;;;;;;4990749;28;20092;-69
2022/01/03 10:32:55;;;;;;;6.57;2.00;;;12.00;99.90;;;;;;4991997;28;20489;-69
2022/01/03 10:35:21;;;;;;;5.35;1.70;;;;;;;;;;4991927;28;20034;-69
2022/01/03 10:37:49;;;;;;;6.35;1.58;;;;;;;;;;4992223;28;20358;-70
2022/01/03 10:40:19;;;;;;;6.53;1.35;;;;;;;;;;4990189;28;20022;-71
2022/01/03 10:42:46;;;;;;;6.60;1.40;;;;;;;;;;4990871;28;20041;-70
2022/01/03 10:45:12;;;;;;;4.53;1.40;;;;;;;;;;4991669;28;20038;-75
2022/01/03 10:47:41;;;;;;;9.23;2.40;;;;;;;;;;4992140;28;20034;-73
2022/01/03 10:50:15;;;;;;;4.45;1.75;;;;;;;;;;4991498;28;20172;-74
2022/01/03 10:52:41;;;;;;;7.55;1.52;;;;;;;;;;4992482;28;20503;-70
2022/01/03 10:55:15;;;;;;;5.00;1.58;;;;;;;;;;4991761;28;20022;-70
2022/01/03 10:57:48;;;;;;;3.47;1.73;;;;;;;;;;4991794;28;20023;-71
2022/01/03 11:00:19;;;;;;;7.15;1.67;;;;;;;;;;4991217;28;20536;-70
2022/01/03 11:03:07;;;;;;;6.95;1.73;;;;;;;;;;4990771;28;20057;-70
2022/01/03 11:05:37;;;;;;;5.30;1.70;;;;;;;;;;4991478;28;20018;-70
2022/01/03 11:10:45;;;;;;;6.80;1.73;;;;;;;;;;4990841;28;20042;-70
2022/01/03 11:13:14;;;;;;;12.27;1.98;;;;;;;;;;4991782;28;20034;-70
2022/01/03 11:15:42;;;;;;;8.95;2.03;;;;;;;;;;4990777;28;20022;-70
2022/01/03 11:18:08;;;;;;;4.82;1.30;;;;;;;;;;4991361;28;20102;-69
2022/01/03 11:20:35;;;;;;;6.10;1.85;;;;;;;;;;4990902;28;20058;-69
2022/01/03 11:23:00;;;;;;;10.77;2.15;;;12.80;99.90;;;;;;4991680;28;20069;-70
2022/01/03 11:25:30;;;;;;;6.00;1.48;;;;;;;;;;4991452;28;20065;-70
2022/01/03 11:27:56;;;;;;;4.35;1.65;;;;;;;;;;4991555;28;20033;-70
2022/01/03 11:30:23;;;;;;;8.55;1.63;;;;;;;;;;4990900;28;20034;-69
2022/01/03 11:32:49;;;;;;;6.20;1.77;;;;;;;;;;4990698;28;20427;-70
2022/01/03 11:35:16;;;;;;;9.02;2.22;;;;;;;;;;4991456;28;20069;-70
2022/01/03 11:37:45;;;;;;;7.20;1.73;;;;;;;;;;4991632;28;20022;-69
2022/01/03 11:40:12;;;;;;;8.65;1.70;;;;;;;;;;4991018;28;20029;-69
2022/01/03 11:42:38;;;;;;;5.07;1.70;;;12.10;99.90;;;;;;4991613;28;20026;-69
2022/01/03 11:45:04;;;;;;;8.80;2.05;;;12.90;99.90;;;;;;4991472;28;20449;-70
2022/01/03 11:47:31;;;;;;;9.23;1.80;;;12.50;99.90;;;;;;4990929;28;20027;-70
2022/01/03 11:49:58;;;;;;;4.13;1.67;;;12.80;99.90;;;;;;4990761;28;20053;-70
2022/01/03 11:52:25;;;;;;;7.05;1.58;;;12.70;99.90;;;;;;4990110;28;20034;-70
2022/01/03 11:54:52;;;;;;;4.03;1.38;;;;;;;;;;4990956;28;20030;-70
2022/01/03 11:57:27;;;;;;;7.30;1.75;;;13.80;99.90;;;;;;4991286;28;20030;-70
2022/01/03 12:05:56;;;;;;;5.00;1.40;;;12.80;99.90;;;;;;4991229;28;20512;-70
2022/01/03 12:08:24;;;;;;;6.60;1.88;;;;;;;;;;4991077;28;20400;-71
2022/01/03 12:10:50;;;;;;;2.08;1.05;;;12.80;99.90;;;;;;4990180;28;20033;-70
2022/01/03 12:13:16;;;;;;;3.05;1.15;;;12.50;99.90;;;;;;4991136;28;20121;-71
2022/01/03 12:15:42;;;;;;;5.82;1.83;;;12.50;99.90;;;;;;4990974;28;20161;-70
2022/01/03 12:18:27;;;;;;;5.53;1.80;;;;;;;;;;4990865;28;20544;-70
2022/01/03 12:20:53;;;;;;;4.13;1.40;;;;;;;;;;4990158;28;20109;-70
2022/01/03 12:23:40;;;;;;;5.07;1.35;;;13.90;99.90;;;;;;4989734;28;20085;-70
2022/01/03 12:26:08;;;;;;;2.45;1.42;;;;;;;;;;4990839;28;20030;-70
2022/01/03 12:29:05;;;;;;;4.65;1.50;;;15.70;99.90;;;;;;4992332;28;20057;-71
2022/01/03 12:31:50;;;;;;;3.70;1.23;;;;;;;;;;4994316;28;20022;-70
2022/01/03 12:34:19;;;;;;;3.70;1.58;;;13.70;99.90;;;;;;4994411;28;20039;-70
2022/01/03 12:37:05;;;;;;;5.00;1.88;;;;;;;;;;4994483;28;20057;-69
2022/01/03 12:39:30;;;;;;;6.78;1.50;;;12.80;99.90;;;;;;4993363;28;20065;-68
2022/01/03 12:41:56;;;;;;;5.22;1.48;;;12.30;99.90;;;;;;4994203;28;20034;-71
2022/01/03 12:44:41;;;;;;;5.85;1.95;;;;;;;;;;4994160;28;20034;-69
2022/01/03 12:47:17;;;;;;;5.55;1.95;;;;;;;;;;4991886;28;20088;-63
2022/01/03 12:49:43;;;;;;;4.85;1.90;;;13.10;99.90;;;;;;4993034;28;20026;-65
2022/01/03 12:52:16;;;;;;;5.90;1.70;;;13.70;99.90;;;;;;4993771;28;20422;-66
2022/01/03 12:54:42;;;;;;;4.25;2.47;;;12.70;99.90;;;;;;4994012;28;20567;-68
2022/01/03 12:57:13;;;;;;;3.53;1.80;;;12.60;99.90;;;;;;4993911;28;20455;-64
2022/01/03 12:59:38;;;;;;;7.88;1.80;;;13.50;99.90;;;;;;4992815;28;20030;-64
2022/01/03 13:02:23;;;;;;;4.05;1.50;;;;;;;;;;4990927;28;20034;-64
2022/01/03 13:04:49;;;;;;;5.13;1.50;;;;;;;;;;4992012;28;20030;-64
2022/01/03 13:07:22;;;;;;;4.25;1.42;;;;;;;;;;4990958;28;20041;-64
2022/01/03 13:09:47;;;;;;;4.10;1.50;;;12.70;99.90;;;;;;4991419;28;20579;-64
2022/01/03 13:12:13;;;;;;;6.63;1.58;;;12.40;99.90;;;;;;4993529;28;20129;-63
2022/01/03 13:14:39;;;;;;;4.63;2.00;;;;;;;;;;4993873;28;20034;-64
2022/01/03 13:17:05;;;;;;;4.47;1.42;;;;;;;;;;4993315;28;20440;-64
2022/01/03 13:19:35;;;;;;;4.20;1.30;;;;;;;;;;4992621;28;20439;-63
2022/01/03 13:22:01;;;;;;;3.47;1.60;;;;;;;;;;4993880;28;20031;-63
2022/01/03 13:24:32;;;;;;;6.55;1.92;;;;;;;;;;4993772;28;20503;-63
2022/01/03 13:27:04;;;;;;;3.00;1.10;;;11.80;99.90;;;;;;4993766;28;20089;-64
2022/01/03 13:29:37;;;;;;;2.42;0.93;;;;;;;;;;4992778;28;20084;-63
2022/01/03 13:32:06;;;;;;;3.92;1.45;;;13.00;99.90;;;;;;4998338;28;20113;-63
2022/01/03 13:34:32;;;;;;;3.28;1.30;;;;;;;;;;4997975;28;20046;-63
2022/01/03 13:37:17;;;;;;;6.50;1.55;;;13.50;99.90;;;;;;4998126;28;20045;-63
2022/01/03 13:39:44;;;;;;;4.72;2.60;;;;;;;;;;4998136;28;20085;-63
2022/01/03 13:42:12;;;;;;;5.47;2.20;;;;;;;;;;4993665;28;20030;-64
2022/01/03 13:50:00;;;;;;;5.57;2.33;;;;;;;;;;4998364;28;20077;-63
2022/01/03 13:52:27;;;;;;;4.88;1.63;;;;;;;;;;4993098;28;20724;-63
2022/01/03 13:54:55;;;;;;;4.93;1.25;;;;;;;;;;4992953;28;20026;-63
2022/01/03 13:57:21;;;;;;;40.40;22.90;;;;;;;;;;4993072;28;20027;-62
2022/01/03 13:59:48;;;;;;;4.93;1.50;;;;;;;;;;4991266;28;20488;-63
2022/01/03 14:02:13;;;;;;;42.50;23.60;;;12.00;99.90;;;;;;4993228;28;20101;-63
2022/01/03 14:04:39;;;;;;;3.33;3.00;;;;;;;;;;4992997;28;20062;-63
2022/01/03 14:07:09;;;;;;;4.22;1.40;;;;;;;;;;4992241;28;20050;-63
2022/01/03 14:09:40;;;;;;;4.55;1.50;;;;;;;;;;4990522;28;20080;-63
2022/01/03 14:12:07;;;;;;;3.88;1.42;;;;;;;;;;4992434;28;20026;-63
2022/01/03 14:14:36;;;;;;;6.88;2.00;;;;;;;;;;4992248;28;20053;-63
2022/01/03 14:17:04;;;;;;;5.35;2.88;;;;;;;;;;4992366;28;20370;-63
2022/01/03 14:19:30;;;;;;;4.35;1.52;;;13.00;99.90;;;;;;4991045;28;20438;-63
2022/01/03 14:21:56;;;;;;;3.10;1.42;;;;;;;;;;4992096;28;20168;-63
2022/01/03 14:24:25;;;;;;;3.80;2.13;;;12.90;99.90;;;;;;4992135;28;20022;-63
2022/01/03 14:26:56;;;;;;;2.75;1.15;;;11.60;99.90;;;;;;4991174;28;20488;-69
2022/01/03 14:29:22;;;;;;;5.95;2.40;;;;;;;;;;4986076;28;20045;-70
2022/01/03 14:31:58;;;;;;;4.68;1.55;;;;;;;;;;4991516;28;20026;-70
2022/01/03 14:34:26;;;;;;;4.30;2.28;;;;;;;;;;4990856;28;20110;-74